createdAt,value
2022-11-27T00:00:13.935Z,-2.08
2022-11-27T00:02:41.663Z,-2.18
2022-11-27T00:05:10.174Z,-1.99
2022-11-27T00:07:39.517Z,-1.90
2022-11-27T00:10:08.206Z,-1.92
2022-11-27T00:12:36.358Z,-1.84
2022-11-27T00:15:04.639Z,-1.82
2022-11-27T00:17:32.214Z,-1.82
2022-11-27T00:19:59.838Z,-1.85
2022-11-27T00:22:27.875Z,-1.92
2022-11-27T00:24:56.786Z,-1.95
2022-11-27T00:27:24.850Z,-2.01
2022-11-27T00:29:52.450Z,-1.96
2022-11-27T00:32:20.031Z,-1.92
2022-11-27T00:34:47.613Z,-1.89
2022-11-27T00:37:15.529Z,-1.88
2022-11-27T00:39:43.123Z,-1.88
2022-11-27T00:42:12.033Z,-1.88
2022-11-27T00:44:40.061Z,-1.86
2022-11-27T00:47:07.858Z,-1.93
2022-11-27T00:49:35.470Z,-1.97
2022-11-27T00:52:03.036Z,-2.02
2022-11-27T00:54:30.618Z,-2.02
2022-11-27T00:56:58.475Z,-2.04
2022-11-27T00:59:27.406Z,-2.04
2022-11-27T01:01:55.056Z,-2.10
2022-11-27T01:04:22.809Z,-2.11
2022-11-27T01:06:50.393Z,-2.07
2022-11-27T01:09:18.007Z,-2.17
2022-11-27T01:11:45.747Z,-2.22
2022-11-27T01:14:15.288Z,-2.26
2022-11-27T01:16:44.599Z,-2.27
2022-11-27T01:19:13.049Z,-2.24
2022-11-27T01:21:40.931Z,-2.42
2022-11-27T01:24:09.452Z,-2.48
2022-11-27T01:26:37.025Z,-2.51
2022-11-27T01:29:04.636Z,-2.33
2022-11-27T01:31:33.849Z,-2.27
2022-11-27T01:34:05.264Z,-2.24
2022-11-27T01:36:33.691Z,-2.23
2022-11-27T01:39:02.022Z,-2.12
2022-11-27T01:41:31.628Z,-2.14
2022-11-27T01:44:01.354Z,-1.99
2022-11-27T01:46:33.049Z,-2.27
2022-11-27T01:49:12.352Z,-2.35
2022-11-27T01:51:42.463Z,-2.33
2022-11-27T01:54:10.847Z,-2.24
2022-11-27T01:56:39.817Z,-2.33
2022-11-27T01:59:07.422Z,-2.35
2022-11-27T02:01:35.324Z,-2.33
2022-11-27T02:04:04.505Z,-2.22
2022-11-27T02:06:32.126Z,-2.16
2022-11-27T02:08:59.986Z,-2.21
2022-11-27T02:11:31.413Z,-2.16
2022-11-27T02:14:04.988Z,-2.20
2022-11-27T02:16:36.288Z,-2.22
2022-11-27T02:19:08.659Z,-2.11
2022-11-27T02:21:40.610Z,-2.12
2022-11-27T02:24:23.902Z,-1.95
2022-11-27T02:27:06.958Z,-2.00
2022-11-27T02:29:37.058Z,-2.11
2022-11-27T02:32:10.236Z,-2.18
2022-11-27T02:34:46.635Z,-2.33
2022-11-27T02:37:19.247Z,-2.44
2022-11-27T02:39:52.934Z,-2.55
2022-11-27T02:42:21.729Z,-2.63
2022-11-27T02:44:55.607Z,-2.43
2022-11-27T02:47:23.597Z,-2.44
2022-11-27T02:49:52.250Z,-2.50
2022-11-27T02:52:21.122Z,-2.62
2022-11-27T02:54:49.903Z,-2.68
2022-11-27T02:57:17.947Z,-2.68
2022-11-27T02:59:46.154Z,-2.62
2022-11-27T03:02:19.935Z,-2.66
2022-11-27T03:04:50.554Z,-2.62
2022-11-27T03:07:26.514Z,-2.51
2022-11-27T03:09:58.603Z,-2.36
2022-11-27T03:12:26.239Z,-2.28
2022-11-27T03:14:54.494Z,-2.25
2022-11-27T03:17:34.165Z,-2.22
2022-11-27T03:20:05.916Z,-2.10
2022-11-27T03:22:33.501Z,-2.01
2022-11-27T03:25:01.209Z,-2.05
2022-11-27T03:27:31.455Z,-2.01
2022-11-27T03:30:01.095Z,-1.95
2022-11-27T03:32:31.595Z,-1.89
2022-11-27T03:34:59.448Z,-1.85
2022-11-27T03:37:27.822Z,-1.89
2022-11-27T03:39:57.377Z,-1.96
2022-11-27T03:42:28.941Z,-1.97
2022-11-27T03:45:03.865Z,-1.93
2022-11-27T03:47:42.743Z,-1.95
2022-11-27T03:50:20.048Z,-2.01
2022-11-27T03:52:54.486Z,-1.97
2022-11-27T03:55:26.230Z,-1.93
2022-11-27T03:57:57.673Z,-1.92
2022-11-27T04:00:25.482Z,-1.94
2022-11-27T04:02:54.751Z,-1.93
2022-11-27T04:05:22.754Z,-1.91
2022-11-27T04:07:50.448Z,-1.95
2022-11-27T04:10:18.217Z,-1.96
2022-11-27T04:12:45.816Z,-1.94
2022-11-27T04:15:14.139Z,-1.91
2022-11-27T04:17:41.704Z,-1.88
2022-11-27T04:20:13.703Z,-1.98
2022-11-27T04:22:41.329Z,-1.87
2022-11-27T04:25:09.776Z,-1.90
2022-11-27T04:27:37.364Z,-1.78
2022-11-27T04:30:05.714Z,-1.81
2022-11-27T04:32:33.268Z,-1.73
2022-11-27T04:35:01.237Z,-1.87
2022-11-27T04:37:30.140Z,-1.72
2022-11-27T04:39:57.777Z,-1.66
2022-11-27T04:42:25.428Z,-1.67
2022-11-27T04:44:53.032Z,-1.66
2022-11-27T04:47:20.670Z,-1.64
2022-11-27T04:49:48.248Z,-1.58
2022-11-27T04:52:15.865Z,-1.58
2022-11-27T04:54:55.445Z,-1.55
2022-11-27T04:57:27.338Z,-1.59
2022-11-27T04:59:55.097Z,-1.58
2022-11-27T05:02:22.818Z,-1.57
2022-11-27T05:04:50.491Z,-1.55
2022-11-27T05:07:18.155Z,-1.43
2022-11-27T05:09:47.267Z,-1.55
2022-11-27T05:12:14.831Z,-1.52
2022-11-27T05:14:42.594Z,-1.58
2022-11-27T05:17:10.511Z,-1.60
2022-11-27T05:19:38.154Z,-1.58
2022-11-27T05:22:05.804Z,-1.52
2022-11-27T05:24:33.952Z,-1.42
2022-11-27T05:27:02.859Z,-1.47
2022-11-27T05:29:30.678Z,-1.45
2022-11-27T05:31:58.293Z,-1.36
2022-11-27T05:34:25.935Z,-1.32
2022-11-27T05:36:54.052Z,-1.37
2022-11-27T05:39:22.071Z,-1.33
2022-11-27T05:41:50.195Z,-1.33
2022-11-27T05:44:19.166Z,-1.25
2022-11-27T05:46:47.679Z,-1.31
2022-11-27T05:49:16.722Z,-1.27
2022-11-27T05:51:50.664Z,-1.35
2022-11-27T05:54:18.907Z,-1.29
2022-11-27T05:56:46.912Z,-1.35
2022-11-27T05:59:14.910Z,-1.34
2022-11-27T06:01:44.476Z,-1.37
2022-11-27T06:04:12.250Z,-1.29
2022-11-27T06:06:39.985Z,-1.33
2022-11-27T06:09:12.409Z,-1.35
2022-11-27T06:11:40.311Z,-1.34
2022-11-27T06:14:08.623Z,-1.31
2022-11-27T06:16:36.318Z,-1.36
2022-11-27T06:19:05.309Z,-1.41
2022-11-27T06:21:32.929Z,-1.39
2022-11-27T06:24:00.668Z,-1.35
2022-11-27T06:26:29.898Z,-1.29
2022-11-27T06:28:58.587Z,-1.29
2022-11-27T06:31:28.178Z,-1.27
2022-11-27T06:33:57.175Z,-1.35
2022-11-27T06:36:28.692Z,-1.22
2022-11-27T06:38:56.304Z,-1.31
2022-11-27T06:41:26.158Z,-1.27
2022-11-27T06:43:54.162Z,-1.29
2022-11-27T06:46:22.994Z,-1.29
2022-11-27T06:48:52.213Z,-1.28
2022-11-27T06:51:22.705Z,-1.25
2022-11-27T06:53:52.300Z,-1.14
2022-11-27T06:56:23.099Z,-1.06
2022-11-27T06:58:52.549Z,-1.05
2022-11-27T07:01:20.389Z,-1.00
2022-11-27T07:03:48.241Z,-0.95
2022-11-27T07:06:16.979Z,-0.97
2022-11-27T07:08:44.572Z,-0.89
2022-11-27T07:11:19.404Z,-0.92
2022-11-27T07:13:47.290Z,-0.85
2022-11-27T07:16:19.446Z,-0.86
2022-11-27T07:18:48.799Z,-0.82
2022-11-27T07:21:17.004Z,-0.83
2022-11-27T07:23:45.257Z,-0.80
2022-11-27T07:26:15.671Z,-0.81
2022-11-27T07:28:43.711Z,-0.93
2022-11-27T07:31:11.935Z,-0.80
2022-11-27T07:33:39.495Z,-0.88
2022-11-27T07:36:09.765Z,-0.82
2022-11-27T07:38:37.415Z,-0.73
2022-11-27T07:41:06.517Z,-0.65
2022-11-27T07:43:36.146Z,-0.66
2022-11-27T07:46:04.941Z,-0.63
2022-11-27T07:48:32.679Z,-0.63
2022-11-27T07:51:00.806Z,-0.52
2022-11-27T07:53:28.416Z,-0.58
2022-11-27T07:55:55.966Z,-0.49
2022-11-27T07:58:23.540Z,-0.63
2022-11-27T08:00:52.513Z,-0.57
2022-11-27T08:03:20.226Z,-0.56
2022-11-27T08:05:47.766Z,-0.48
2022-11-27T08:08:15.340Z,-0.41
2022-11-27T08:10:43.025Z,-0.54
2022-11-27T08:13:10.639Z,-0.47
2022-11-27T08:15:38.992Z,-0.37
2022-11-27T08:18:07.940Z,-0.36
2022-11-27T08:20:35.558Z,-0.36
2022-11-27T08:23:03.400Z,-0.24
2022-11-27T08:25:33.217Z,-0.30
2022-11-27T08:28:00.862Z,-0.22
2022-11-27T08:30:28.422Z,-0.22
2022-11-27T08:32:55.950Z,-0.19
2022-11-27T08:35:25.034Z,-0.05
2022-11-27T08:37:52.874Z,0.00
2022-11-27T08:40:20.734Z,0.01
2022-11-27T08:42:48.298Z,0.16
2022-11-27T08:45:15.969Z,0.22
2022-11-27T08:47:44.026Z,0.23
2022-11-27T08:50:11.786Z,0.24
2022-11-27T08:52:40.750Z,0.24
2022-11-27T08:55:09.464Z,0.34
2022-11-27T08:57:37.974Z,0.36
2022-11-27T09:00:07.098Z,0.46
2022-11-27T09:02:35.984Z,0.47
2022-11-27T09:05:05.998Z,0.51
2022-11-27T09:07:33.684Z,0.41
2022-11-27T09:10:02.701Z,0.55
2022-11-27T09:12:34.051Z,0.55
2022-11-27T09:15:01.653Z,0.50
2022-11-27T09:17:30.128Z,0.50
2022-11-27T09:19:57.767Z,0.62
2022-11-27T09:22:25.401Z,0.74
2022-11-27T09:24:52.980Z,0.84
2022-11-27T09:27:21.949Z,0.90
2022-11-27T09:29:49.623Z,0.91
2022-11-27T09:32:17.578Z,0.99
2022-11-27T09:34:45.369Z,1.09
2022-11-27T09:37:12.959Z,1.20
2022-11-27T09:39:40.580Z,1.19
2022-11-27T09:42:09.653Z,1.18
2022-11-27T09:44:42.799Z,1.30
2022-11-27T09:47:16.317Z,1.32
2022-11-27T09:49:47.750Z,1.54
2022-11-27T09:52:21.366Z,1.56
2022-11-27T09:54:54.926Z,1.51
2022-11-27T09:57:28.453Z,1.54
2022-11-27T09:59:59.901Z,1.56
2022-11-27T10:02:30.921Z,1.43
2022-11-27T10:05:13.466Z,1.62
2022-11-27T10:07:53.181Z,1.71
2022-11-27T10:10:33.681Z,1.76
2022-11-27T10:13:06.135Z,1.76
2022-11-27T10:15:39.801Z,1.53
2022-11-27T10:18:13.078Z,1.49
2022-11-27T10:20:46.867Z,1.65
2022-11-27T10:23:21.761Z,1.61
2022-11-27T10:25:50.538Z,1.79
2022-11-27T10:28:27.691Z,1.58
2022-11-27T10:31:00.838Z,1.65
2022-11-27T10:33:38.763Z,1.67
2022-11-27T10:36:12.172Z,1.61
2022-11-27T10:38:41.444Z,1.49
2022-11-27T10:41:34.406Z,1.45
2022-11-27T10:44:02.585Z,1.69
2022-11-27T10:46:33.593Z,1.29
2022-11-27T10:49:01.702Z,1.50
2022-11-27T10:51:33.378Z,1.51
2022-11-27T10:54:02.665Z,1.31
2022-11-27T10:56:43.482Z,1.47
2022-11-27T10:59:13.878Z,1.61
2022-11-27T11:01:44.793Z,1.51
2022-11-27T11:04:36.475Z,1.53
2022-11-27T11:07:02.592Z,1.55
2022-11-27T11:09:31.008Z,1.52
2022-11-27T11:12:08.204Z,1.47
2022-11-27T11:14:36.041Z,1.47
2022-11-27T11:17:18.120Z,1.64
2022-11-27T11:19:46.549Z,1.64
2022-11-27T11:22:16.069Z,1.53
2022-11-27T11:24:48.022Z,1.47
2022-11-27T11:27:17.590Z,1.43
2022-11-27T11:29:48.972Z,1.55
2022-11-27T11:32:24.536Z,1.59
2022-11-27T11:35:00.621Z,1.55
2022-11-27T11:37:30.413Z,1.62
2022-11-27T11:40:00.111Z,1.62
2022-11-27T11:42:30.007Z,1.71
2022-11-27T11:45:05.192Z,1.74
2022-11-27T11:47:34.422Z,1.72
2022-11-27T11:50:02.250Z,1.66
2022-11-27T11:52:39.571Z,1.81
2022-11-27T11:55:14.721Z,1.62
2022-11-27T11:58:03.294Z,1.76
2022-11-27T12:00:58.434Z,1.81
2022-11-27T12:03:57.891Z,1.75
2022-11-27T12:06:36.756Z,1.68
2022-11-27T12:09:12.320Z,1.61
2022-11-27T12:11:44.544Z,1.78
2022-11-27T12:14:19.727Z,1.79
2022-11-27T12:17:01.568Z,1.71
2022-11-27T12:19:46.450Z,1.72
2022-11-27T12:22:21.133Z,1.68
2022-11-27T12:24:54.367Z,1.59
2022-11-27T12:27:28.998Z,1.65
2022-11-27T12:30:07.099Z,1.65
2022-11-27T12:32:48.825Z,1.64
2022-11-27T12:35:35.907Z,1.66
2022-11-27T12:38:16.487Z,1.76
2022-11-27T12:40:55.103Z,1.80
2022-11-27T12:43:25.521Z,1.63
2022-11-27T12:45:58.836Z,1.62
2022-11-27T12:48:30.721Z,1.68
2022-11-27T12:51:01.674Z,1.73
2022-11-27T12:53:31.351Z,1.60
2022-11-27T12:56:04.371Z,1.53
2022-11-27T12:58:34.727Z,1.54
2022-11-27T13:01:04.845Z,1.59
2022-11-27T13:03:36.827Z,1.57
2022-11-27T13:06:10.051Z,1.47
2022-11-27T13:08:48.394Z,1.57
2022-11-27T13:11:21.861Z,1.50
2022-11-27T13:13:51.165Z,1.50
2022-11-27T13:16:23.201Z,1.46
2022-11-27T13:18:53.551Z,1.37
2022-11-27T13:21:24.553Z,1.45
2022-11-27T13:23:52.600Z,1.61
2022-11-27T13:26:26.264Z,1.49
2022-11-27T13:28:56.462Z,1.53
2022-11-27T13:31:26.628Z,1.52
2022-11-27T13:33:59.811Z,1.41
2022-11-27T13:36:38.579Z,1.42
2022-11-27T13:39:06.636Z,1.50
2022-11-27T13:41:38.668Z,1.48
2022-11-27T13:44:11.452Z,1.44
2022-11-27T13:46:46.330Z,1.42
2022-11-27T13:49:23.255Z,1.36
2022-11-27T13:51:52.184Z,1.37
2022-11-27T13:54:27.510Z,1.34
2022-11-27T13:56:56.534Z,1.38
2022-11-27T13:59:26.608Z,1.47
2022-11-27T14:01:58.000Z,1.57
2022-11-27T14:04:25.728Z,1.52
2022-11-27T14:06:57.238Z,1.51
2022-11-27T14:09:34.520Z,1.46
2022-11-27T14:12:02.049Z,1.42
2022-11-27T14:14:30.658Z,1.50
2022-11-27T14:16:59.795Z,1.53
2022-11-27T14:19:33.918Z,1.54
2022-11-27T14:22:03.449Z,1.57
2022-11-27T14:24:41.290Z,1.42
2022-11-27T14:27:17.054Z,1.53
2022-11-27T14:29:44.972Z,1.52
2022-11-27T14:32:14.571Z,1.47
2022-11-27T14:34:43.108Z,1.58
2022-11-27T14:37:24.935Z,1.64
2022-11-27T14:39:52.685Z,1.63
2022-11-27T14:42:27.974Z,1.59
2022-11-27T14:45:03.196Z,1.53
2022-11-27T14:47:32.293Z,1.47
2022-11-27T14:50:00.623Z,1.47
2022-11-27T14:52:31.110Z,1.37
2022-11-27T14:54:58.806Z,1.41
2022-11-27T14:57:29.619Z,1.35
2022-11-27T15:00:06.041Z,1.33
2022-11-27T15:02:33.743Z,1.29
2022-11-27T15:05:06.303Z,1.30
2022-11-27T15:07:45.178Z,1.22
2022-11-27T15:10:22.828Z,1.24
2022-11-27T15:12:50.586Z,1.27
2022-11-27T15:15:21.936Z,1.30
2022-11-27T15:17:52.940Z,1.27
2022-11-27T15:20:25.916Z,1.24
2022-11-27T15:22:56.126Z,1.22
2022-11-27T15:25:35.952Z,1.19
2022-11-27T15:28:03.887Z,1.13
2022-11-27T15:30:31.505Z,1.08
2022-11-27T15:32:59.077Z,1.08
2022-11-27T15:35:28.847Z,1.10
2022-11-27T15:38:04.167Z,1.09
2022-11-27T15:40:35.900Z,1.08
2022-11-27T15:43:03.946Z,1.13
2022-11-27T15:45:32.836Z,1.14
2022-11-27T15:48:01.566Z,1.16
2022-11-27T15:50:30.042Z,1.12
2022-11-27T15:53:00.904Z,1.12
2022-11-27T15:55:28.541Z,1.18
2022-11-27T15:57:56.126Z,1.18
2022-11-27T16:00:23.823Z,1.19
2022-11-27T16:02:52.366Z,1.19
2022-11-27T16:05:20.501Z,1.21
2022-11-27T16:07:54.938Z,1.23
2022-11-27T16:10:24.492Z,1.26
2022-11-27T16:12:54.933Z,1.24
2022-11-27T16:15:23.910Z,1.28
2022-11-27T16:17:53.635Z,1.27
2022-11-27T16:20:21.428Z,1.29
2022-11-27T16:22:49.228Z,1.36
2022-11-27T16:25:17.018Z,1.41
2022-11-27T16:27:46.070Z,1.38
2022-11-27T16:30:14.526Z,1.33
2022-11-27T16:32:42.179Z,1.29
2022-11-27T16:35:10.236Z,1.24
2022-11-27T16:37:37.954Z,1.27
2022-11-27T16:40:07.244Z,1.28
2022-11-27T16:42:34.944Z,1.25
2022-11-27T16:45:04.095Z,1.28
2022-11-27T16:47:33.817Z,1.27
2022-11-27T16:50:02.309Z,1.28
2022-11-27T16:52:30.149Z,1.27
2022-11-27T16:54:57.742Z,1.26
2022-11-27T16:57:25.303Z,1.25
2022-11-27T16:59:52.875Z,1.21
2022-11-27T17:02:21.874Z,1.17
2022-11-27T17:04:49.507Z,1.23
2022-11-27T17:07:17.152Z,1.27
2022-11-27T17:09:45.170Z,1.33
2022-11-27T17:12:12.917Z,1.29
2022-11-27T17:14:43.177Z,1.33
2022-11-27T17:17:10.980Z,1.32
2022-11-27T17:19:40.175Z,1.25
2022-11-27T17:22:08.092Z,1.24
2022-11-27T17:24:44.294Z,1.17
2022-11-27T17:27:12.147Z,1.14
2022-11-27T17:29:40.326Z,1.09
2022-11-27T17:32:10.012Z,1.09
2022-11-27T17:34:37.830Z,1.00
2022-11-27T17:37:07.354Z,0.96
2022-11-27T17:39:35.041Z,0.93
2022-11-27T17:42:02.753Z,0.86
2022-11-27T17:44:30.529Z,0.86
2022-11-27T17:46:58.199Z,0.80
2022-11-27T17:49:26.713Z,0.78
2022-11-27T17:51:54.439Z,0.82
2022-11-27T17:54:23.326Z,0.81
2022-11-27T17:56:51.595Z,0.81
2022-11-27T17:59:19.361Z,0.83
2022-11-27T18:01:48.380Z,0.82
2022-11-27T18:04:15.999Z,0.85
2022-11-27T18:06:43.576Z,0.84
2022-11-27T18:09:11.852Z,0.84
2022-11-27T18:11:40.855Z,0.84
2022-11-27T18:14:08.427Z,0.84
2022-11-27T18:16:38.782Z,0.82
2022-11-27T18:19:08.344Z,0.84
2022-11-27T18:21:36.861Z,0.86
2022-11-27T18:27:09.943Z,0.85
2022-11-27T18:29:39.334Z,0.89
2022-11-27T18:32:07.150Z,0.88
2022-11-27T18:34:34.934Z,0.90
2022-11-27T18:37:02.599Z,0.90
2022-11-27T18:39:31.323Z,0.92
2022-11-27T18:42:00.290Z,0.92
2022-11-27T18:44:27.886Z,0.94
2022-11-27T18:46:55.604Z,0.97
2022-11-27T18:49:23.740Z,0.96
2022-11-27T18:51:51.760Z,1.00
2022-11-27T18:54:19.436Z,1.01
2022-11-27T18:56:47.010Z,0.98
2022-11-27T18:59:15.932Z,0.98
2022-11-27T19:01:43.749Z,0.98
2022-11-27T19:04:12.042Z,0.99
2022-11-27T19:06:42.026Z,1.00
2022-11-27T19:09:10.936Z,1.04
2022-11-27T19:11:38.965Z,1.02
2022-11-27T19:14:07.005Z,1.03
2022-11-27T19:16:38.600Z,1.06
2022-11-27T19:19:07.278Z,1.04
2022-11-27T19:21:35.358Z,1.03
2022-11-27T19:24:04.178Z,1.04
2022-11-27T19:26:33.434Z,1.04
2022-11-27T19:29:03.673Z,1.08
2022-11-27T19:31:33.041Z,1.08
2022-11-27T19:34:03.125Z,1.07
2022-11-27T19:36:32.084Z,1.09
2022-11-27T19:39:01.878Z,1.14
2022-11-27T19:41:29.460Z,1.11
2022-11-27T19:43:56.966Z,1.11
2022-11-27T19:46:26.688Z,1.15
2022-11-27T19:48:56.324Z,1.17
2022-11-27T19:51:25.441Z,1.12
2022-11-27T19:53:53.304Z,1.16
2022-11-27T19:56:21.175Z,1.09
2022-11-27T19:58:48.925Z,1.12
2022-11-27T20:01:18.243Z,1.09
2022-11-27T20:03:46.614Z,1.04
2022-11-27T20:06:15.873Z,1.05
2022-11-27T20:08:45.794Z,1.02
2022-11-27T20:11:15.477Z,1.04
2022-11-27T20:13:43.292Z,1.02
2022-11-27T20:16:12.127Z,0.99
2022-11-27T20:18:39.892Z,0.98
2022-11-27T20:21:08.532Z,0.98
2022-11-27T20:23:37.794Z,1.03
2022-11-27T20:26:07.312Z,1.02
2022-11-27T20:28:35.277Z,0.99
2022-11-27T20:31:04.034Z,1.03
2022-11-27T20:33:32.868Z,1.04
2022-11-27T20:36:02.180Z,1.07
2022-11-27T20:38:29.904Z,1.08
2022-11-27T20:40:57.636Z,1.08
2022-11-27T20:43:26.732Z,1.11
2022-11-27T20:45:54.471Z,1.14
2022-11-27T20:48:22.215Z,1.11
2022-11-27T20:50:51.365Z,1.09
2022-11-27T20:53:19.577Z,1.09
2022-11-27T20:55:47.903Z,1.13
2022-11-27T20:58:15.628Z,1.14
2022-11-27T21:00:44.790Z,1.18
2022-11-27T21:03:12.587Z,1.17
2022-11-27T21:05:43.121Z,1.14
2022-11-27T21:08:10.790Z,1.18
2022-11-27T21:10:38.610Z,1.13
2022-11-27T21:13:06.308Z,1.15
2022-11-27T21:15:33.955Z,1.11
2022-11-27T21:18:03.041Z,1.11
2022-11-27T21:20:31.353Z,1.09
2022-11-27T21:22:59.205Z,1.09
2022-11-27T21:25:27.217Z,1.14
2022-11-27T21:27:58.071Z,1.13
2022-11-27T21:30:25.886Z,1.12
2022-11-27T21:32:53.664Z,1.10
2022-11-27T21:35:23.929Z,1.08
2022-11-27T21:37:54.141Z,1.08
2022-11-27T21:40:21.871Z,1.09
2022-11-27T21:42:49.753Z,1.09
2022-11-27T21:45:17.561Z,1.04
2022-11-27T21:47:45.233Z,1.09
2022-11-27T21:50:13.916Z,1.12
2022-11-27T21:52:42.877Z,1.12
2022-11-27T21:55:12.172Z,1.07
2022-11-27T21:57:40.146Z,1.16
2022-11-27T22:00:09.158Z,1.18
2022-11-27T22:02:36.925Z,1.18
2022-11-27T22:05:05.404Z,1.15
2022-11-27T22:07:33.170Z,1.27
2022-11-27T22:10:02.601Z,1.23
2022-11-27T22:12:30.319Z,1.22
2022-11-27T22:14:58.051Z,1.27
2022-11-27T22:17:25.814Z,1.21
2022-11-27T22:19:53.530Z,1.31
2022-11-27T22:22:21.226Z,1.29
2022-11-27T22:24:48.955Z,1.38
2022-11-27T22:27:18.092Z,1.49
2022-11-27T22:29:45.842Z,1.46
2022-11-27T22:32:13.569Z,1.44
2022-11-27T22:34:41.594Z,1.21
2022-11-27T22:37:09.522Z,1.22
2022-11-27T22:39:37.172Z,1.22
2022-11-27T22:42:05.012Z,1.20
2022-11-27T22:44:34.402Z,1.11
2022-11-27T22:47:02.134Z,1.10
2022-11-27T22:49:29.876Z,1.04
2022-11-27T22:51:57.603Z,1.04
2022-11-27T22:54:25.313Z,1.02
2022-11-27T22:56:52.999Z,1.05
2022-11-27T22:59:36.074Z,1.10
2022-11-27T23:02:05.940Z,1.10
2022-11-27T23:04:33.973Z,1.05
2022-11-27T23:07:01.729Z,1.07
2022-11-27T23:09:29.634Z,1.11
2022-11-27T23:11:57.514Z,1.04
2022-11-27T23:14:25.316Z,1.07
2022-11-27T23:16:53.219Z,1.12
2022-11-27T23:19:22.418Z,1.06
2022-11-27T23:21:50.256Z,1.11
2022-11-27T23:24:17.932Z,1.10
2022-11-27T23:26:45.970Z,1.09
2022-11-27T23:29:13.973Z,1.08
2022-11-27T23:31:41.813Z,1.08
2022-11-27T23:34:13.123Z,1.13
2022-11-27T23:36:42.610Z,1.16
2022-11-27T23:39:12.782Z,1.25
2022-11-27T23:41:40.941Z,1.23
2022-11-27T23:44:08.686Z,1.15
2022-11-27T23:46:36.446Z,1.08
2022-11-27T23:49:04.158Z,1.11
2022-11-27T23:51:33.436Z,1.13
2022-11-27T23:54:02.932Z,1.12
2022-11-27T23:56:32.405Z,1.08
2022-11-27T23:59:00.703Z,1.20
